Aviation Digital Data Service (ADDS)

Output produced by METARs form (2340 UTC 25 February 2018)
found at http://www.aviationweather.gov/adds/metars/
 
MGGT 252300Z 20010KT 8000 FEW022TCU 22/16 Q1024 A3024 HZ TCU E/ESE/SSE
MGGT 252300Z 2600/2624 18008KT 9999 FEW018 TX25/2620Z TN14/2612Z 
     BECMG 2603/2605 VRB03KT SCT016 
     TEMPO 2609/2613 6000 SCT010 
     BECMG 2615/2617 06008KT FEW018 
     BECMG 2619/2621 18008KT SCT018
       
MGPB 252300Z 03004KT 9999 SCT017 28/23 Q1014 A2994
MGPB 252300Z 2600/2624 00000KT 9999 FEW018 TX30/2620Z TN21/2612Z 
     BECMG 2603/2605 CAVOK 
     BECMG 2615/2617 05008KT SCT018
       
MGRT 252300Z 22008KT 9999 BKN025 30/18 Q1015 A2997 PCPN N/NW VOL. SANTA MARIA Y SANTIAGUITO EN ACTIVIDAD
MGSJ 252300Z 00000KT 8000 SCT080 28/22 Q1013 A2991 FU
MGSJ 252300Z 2600/2624 18008KT 8000 SCT020TCU TX32/2620Z TN21/2612Z 
     FM260400 00000KT CAVOK 
     BECMG 2614/2616 18008KT 8000 FEW018 
     TEMPO 2621/2624 VCTSRA SCT020 FEW025CB